Barcelona, Venezuela
Current Conditions -  °F | °C
As of 4:00 PM on Thursday 27 Nov 2014 (Local Time) from SVBC Reporting Station
Few Clouds Few Clouds  
Wind Chill: 88°   Ceiling: Unl
Heat Index: 100°   Visibility: 6mi
Dew Point: 77°   Wind: 12mph
Humidity: 70%   Direction: 360°N
Pressure: 29.8"   Gusts: NA
Location:  10.13°N, 64.72°W
Report Text: SVBC 272000Z 36010KT 9999 FEW010 31/25 Q1009
Loading
Personal Weather Stations






























Interactive Weather Map New forecast layout! Learn more

10-Day Weather Forecast

Advertisements
Track Severe Weather on mobile